createdAt,value
2023-01-05T00:01:42.582Z,100196.16
2023-01-05T00:04:11.240Z,100188.84
2023-01-05T00:06:39.536Z,100189.97
2023-01-05T00:09:08.128Z,100153.44
2023-01-05T00:11:53.641Z,100162.25
2023-01-05T00:14:42.144Z,100163.31
2023-01-05T00:17:29.942Z,100166.97
2023-01-05T00:20:15.370Z,100171.63
2023-01-05T00:22:47.347Z,100159.56
2023-01-05T00:25:17.036Z,100163.31
2023-01-05T00:27:47.926Z,100166.41
2023-01-05T00:30:19.122Z,100163.88
2023-01-05T00:32:47.311Z,100158.81
2023-01-05T00:35:16.730Z,100146.53
2023-01-05T00:37:45.550Z,100156.81
2023-01-05T00:40:16.899Z,100156.47
2023-01-05T00:42:45.143Z,100150.13
2023-01-05T00:45:15.202Z,100146.97
2023-01-05T00:47:44.677Z,100151.72
2023-01-05T00:50:17.271Z,100148.22
2023-01-05T00:52:46.024Z,100151.69
2023-01-05T00:55:14.041Z,100160.84
2023-01-05T00:57:42.405Z,100148.00
2023-01-05T01:00:15.142Z,100146.38
2023-01-05T01:02:44.265Z,100146.81
2023-01-05T01:05:13.232Z,100155.50
2023-01-05T01:07:41.036Z,100137.28
2023-01-05T01:10:10.029Z,100127.84
2023-01-05T01:12:38.039Z,100132.63
2023-01-05T01:15:06.994Z,100134.97
2023-01-05T01:17:35.224Z,100133.78
2023-01-05T01:20:05.470Z,100119.75
2023-01-05T01:22:33.288Z,100119.03
2023-01-05T01:25:01.408Z,100121.34
2023-01-05T01:27:30.955Z,100120.16
2023-01-05T01:29:58.802Z,100126.56
2023-01-05T01:32:26.553Z,100133.31
2023-01-05T01:34:55.143Z,100128.31
2023-01-05T01:37:24.200Z,100144.75
2023-01-05T01:39:54.635Z,100131.41
2023-01-05T01:42:23.373Z,100136.19
2023-01-05T01:44:55.888Z,100136.94
2023-01-05T01:47:39.251Z,100138.94
2023-01-05T01:50:14.888Z,100135.56
2023-01-05T01:52:46.568Z,100128.13
2023-01-05T01:55:14.723Z,100129.31
2023-01-05T01:57:43.936Z,100126.22
2023-01-05T02:00:14.695Z,100130.19
2023-01-05T02:02:46.890Z,100129.91
2023-01-05T02:05:18.886Z,100120.88
2023-01-05T02:07:49.338Z,100129.81
2023-01-05T02:10:19.553Z,100112.88
2023-01-05T02:13:02.612Z,100107.66
2023-01-05T02:15:42.599Z,100104.59
2023-01-05T02:18:34.828Z,100094.75
2023-01-05T02:21:16.908Z,100085.75
2023-01-05T02:24:24.610Z,100093.16
2023-01-05T02:27:28.228Z,100087.66
2023-01-05T02:30:30.285Z,100078.91
2023-01-05T02:33:10.364Z,100081.94
2023-01-05T02:35:43.546Z,100082.19
2023-01-05T02:38:15.451Z,100080.53
2023-01-05T02:40:48.680Z,100089.25
2023-01-05T02:43:21.071Z,100080.75
2023-01-05T02:45:49.112Z,100084.34
2023-01-05T02:48:18.792Z,100065.38
2023-01-05T02:50:52.494Z,100081.88
2023-01-05T02:53:23.445Z,100094.16
2023-01-05T02:55:56.178Z,100077.22
2023-01-05T02:58:32.036Z,100094.56
2023-01-05T03:01:06.209Z,100086.75
2023-01-05T03:03:41.703Z,100095.19
2023-01-05T03:06:14.516Z,100107.06
2023-01-05T03:08:51.846Z,100093.59
2023-01-05T03:11:39.628Z,100105.06
2023-01-05T03:14:14.717Z,100110.94
2023-01-05T03:16:44.951Z,100119.66
2023-01-05T03:19:39.718Z,100122.84
2023-01-05T03:22:32.564Z,100125.25
2023-01-05T03:25:19.322Z,100124.94
2023-01-05T03:28:06.784Z,100130.81
2023-01-05T03:30:59.239Z,100130.66
2023-01-05T03:33:54.313Z,100135.03
2023-01-05T03:36:28.706Z,100144.41
2023-01-05T03:39:00.411Z,100154.66
2023-01-05T03:41:31.800Z,100145.34
2023-01-05T03:44:00.088Z,100154.78
2023-01-05T03:46:30.888Z,100166.34
2023-01-05T03:48:58.719Z,100174.59
2023-01-05T03:51:29.207Z,100155.75
2023-01-05T03:53:57.089Z,100160.34
2023-01-05T03:56:25.319Z,100155.50
2023-01-05T03:58:56.969Z,100148.22
2023-01-05T04:01:25.881Z,100152.50
2023-01-05T04:03:54.346Z,100156.38
2023-01-05T04:06:22.093Z,100169.00
2023-01-05T04:08:51.156Z,100177.53
2023-01-05T04:11:22.030Z,100174.84
2023-01-05T04:14:03.735Z,100197.59
2023-01-05T04:16:33.609Z,100199.34
2023-01-05T04:19:07.850Z,100198.34
2023-01-05T04:21:35.604Z,100197.94
2023-01-05T04:24:06.802Z,100202.47
2023-01-05T04:26:37.807Z,100200.94
2023-01-05T04:29:06.131Z,100197.25
2023-01-05T04:31:34.845Z,100197.47
2023-01-05T04:34:02.895Z,100198.94
2023-01-05T04:36:30.881Z,100205.00
2023-01-05T04:38:59.896Z,100215.06
2023-01-05T04:41:32.171Z,100217.38
2023-01-05T04:43:59.911Z,100223.59
2023-01-05T04:46:28.990Z,100223.81
2023-01-05T04:48:59.114Z,100223.03
2023-01-05T04:51:26.811Z,100222.19
2023-01-05T04:53:54.507Z,100226.13
2023-01-05T04:56:24.776Z,100234.19
2023-01-05T04:58:53.881Z,100227.09
2023-01-05T05:01:21.679Z,100222.94
2023-01-05T05:03:53.527Z,100232.28
2023-01-05T05:06:23.583Z,100251.28
2023-01-05T05:08:52.595Z,100255.16
2023-01-05T05:11:20.284Z,100259.72
2023-01-05T05:13:49.670Z,100268.53
2023-01-05T05:16:18.832Z,100249.53
2023-01-05T05:18:49.452Z,100269.31
2023-01-05T05:21:22.119Z,100279.44
2023-01-05T05:23:49.924Z,100292.91
2023-01-05T05:26:17.781Z,100285.75
2023-01-05T05:28:47.393Z,100285.38
2023-01-05T05:31:15.164Z,100288.84
2023-01-05T05:33:44.244Z,100290.00
2023-01-05T05:36:11.941Z,100286.09
2023-01-05T05:38:39.564Z,100297.31
2023-01-05T05:41:15.209Z,100298.63
2023-01-05T05:43:42.822Z,100305.69
2023-01-05T05:46:10.515Z,100303.00
2023-01-05T05:48:38.192Z,100313.25
2023-01-05T05:51:06.235Z,100316.00
2023-01-05T05:53:33.980Z,100310.91
2023-01-05T05:56:01.632Z,100324.69
2023-01-05T05:58:30.640Z,100299.03
2023-01-05T06:00:59.116Z,100323.19
2023-01-05T06:03:26.768Z,100319.25
2023-01-05T06:05:54.862Z,100315.00
2023-01-05T06:08:23.916Z,100322.53
2023-01-05T06:10:51.746Z,100317.81
2023-01-05T06:13:19.607Z,100307.94
2023-01-05T06:15:49.162Z,100326.28
2023-01-05T06:18:17.274Z,100286.25
2023-01-05T06:20:45.319Z,100332.22
2023-01-05T06:23:13.197Z,100331.97
2023-01-05T06:25:41.609Z,100328.88
2023-01-05T06:28:09.222Z,100326.84
2023-01-05T06:30:36.967Z,100322.09
2023-01-05T06:33:06.001Z,100336.25
2023-01-05T06:35:33.708Z,100334.53
2023-01-05T06:38:01.361Z,100340.66
2023-01-05T06:40:28.994Z,100347.25
2023-01-05T06:42:56.706Z,100290.59
2023-01-05T06:45:24.450Z,100346.28
2023-01-05T06:47:52.131Z,100333.94
2023-01-05T06:50:21.093Z,100330.97
2023-01-05T06:52:48.999Z,100341.88
2023-01-05T06:55:16.733Z,100339.88
2023-01-05T06:57:44.550Z,100348.16
2023-01-05T07:00:13.665Z,100337.84
2023-01-05T07:02:41.350Z,100346.16
2023-01-05T07:05:10.038Z,100340.78
2023-01-05T07:07:39.533Z,100356.41
2023-01-05T07:10:08.582Z,100363.00
2023-01-05T07:12:36.384Z,100360.25
2023-01-05T07:15:06.032Z,100359.03
2023-01-05T07:17:33.947Z,100359.59
2023-01-05T07:20:01.591Z,100366.72
2023-01-05T07:22:30.816Z,100358.94
2023-01-05T07:25:00.520Z,100369.44
2023-01-05T07:27:28.215Z,100366.47
2023-01-05T07:29:55.935Z,100374.69
2023-01-05T07:32:23.616Z,100373.03
2023-01-05T07:34:55.737Z,100381.28
2023-01-05T07:37:24.635Z,100370.34
2023-01-05T07:39:52.603Z,100384.91
2023-01-05T07:42:21.725Z,100383.09
2023-01-05T07:44:52.296Z,100385.25
2023-01-05T07:47:19.976Z,100379.88
2023-01-05T07:49:47.659Z,100388.34
2023-01-05T07:52:15.325Z,100390.31
2023-01-05T07:54:43.420Z,100395.38
2023-01-05T07:57:11.092Z,100403.53
2023-01-05T07:59:40.122Z,100414.31
2023-01-05T08:02:07.891Z,100406.16
2023-01-05T08:04:35.700Z,100406.81
2023-01-05T08:07:03.380Z,100413.59
2023-01-05T08:09:49.181Z,100410.56
2023-01-05T08:12:16.820Z,100415.81
2023-01-05T08:14:45.782Z,100423.00
2023-01-05T08:17:13.878Z,100424.22
2023-01-05T08:19:41.544Z,100426.63
2023-01-05T08:22:09.185Z,100430.06
2023-01-05T08:24:36.940Z,100431.59
2023-01-05T08:27:04.679Z,100439.47
2023-01-05T08:29:32.589Z,100399.63
2023-01-05T08:32:01.672Z,100439.41
2023-01-05T08:34:34.463Z,100446.06
2023-01-05T08:37:02.509Z,100442.97
2023-01-05T08:39:30.223Z,100457.50
2023-01-05T08:42:02.502Z,100463.56
2023-01-05T08:44:30.792Z,100463.03
2023-01-05T08:46:58.441Z,100461.22
2023-01-05T08:49:27.512Z,100467.28
2023-01-05T08:51:55.218Z,100470.22
2023-01-05T08:54:22.875Z,100467.56
2023-01-05T08:56:50.973Z,100461.81
2023-01-05T08:59:18.602Z,100459.94
2023-01-05T09:01:46.332Z,100453.97
2023-01-05T09:04:14.171Z,100455.44
2023-01-05T09:06:43.254Z,100456.41
2023-01-05T09:09:11.277Z,100457.19
2023-01-05T09:11:40.403Z,100469.13
2023-01-05T09:14:08.103Z,100466.81
2023-01-05T09:19:23.952Z,100473.75
2023-01-05T09:21:53.511Z,100475.72
2023-01-05T09:24:21.374Z,100488.03
2023-01-05T09:26:49.087Z,100483.75
2023-01-05T09:29:16.816Z,100494.69
2023-01-05T09:31:44.931Z,100492.63
2023-01-05T09:34:13.070Z,100493.66
2023-01-05T09:36:40.979Z,100497.72
2023-01-05T09:39:10.592Z,100499.78
2023-01-05T09:41:43.003Z,100495.31
2023-01-05T09:44:20.365Z,100502.19
2023-01-05T09:46:50.368Z,100504.94
2023-01-05T09:49:21.652Z,100500.81
2023-01-05T09:51:52.202Z,100492.56
2023-01-05T09:54:23.420Z,100502.84
2023-01-05T09:59:42.117Z,100491.34
2023-01-05T10:02:19.638Z,100502.84
2023-01-05T10:04:48.419Z,100490.59
2023-01-05T10:07:22.554Z,100493.31
2023-01-05T10:09:54.373Z,100491.06
2023-01-05T10:12:43.402Z,100496.28
2023-01-05T10:15:14.718Z,100499.75
2023-01-05T10:17:44.774Z,100494.50
2023-01-05T10:20:17.768Z,100506.00
2023-01-05T10:22:58.631Z,100504.50
2023-01-05T10:25:37.057Z,100496.63
2023-01-05T10:28:20.207Z,100511.34
2023-01-05T10:30:56.708Z,100495.50
2023-01-05T10:33:51.616Z,100500.84
2023-01-05T10:37:08.961Z,100503.66
2023-01-05T10:39:59.996Z,100505.28
2023-01-05T10:42:41.862Z,100494.97
2023-01-05T10:45:12.724Z,100510.78
2023-01-05T10:47:41.884Z,100504.84
2023-01-05T10:50:35.731Z,100412.94
2023-01-05T10:53:10.686Z,100482.16
2023-01-05T10:55:46.216Z,100486.34
2023-01-05T10:58:26.681Z,100499.06
2023-01-05T11:00:57.648Z,100511.78
2023-01-05T11:04:14.312Z,100504.22
2023-01-05T11:06:25.015Z,100494.22
2023-01-05T11:08:53.309Z,100503.75
2023-01-05T11:11:23.384Z,100512.81
2023-01-05T11:13:56.005Z,100501.41
2023-01-05T11:16:26.317Z,100498.41
2023-01-05T11:18:55.812Z,100509.44
2023-01-05T11:21:25.120Z,100466.63
2023-01-05T11:23:54.754Z,100499.00
2023-01-05T11:26:28.285Z,100504.69
2023-01-05T11:29:02.629Z,100508.22
2023-01-05T11:31:35.341Z,100497.59
2023-01-05T11:34:10.601Z,100507.47
2023-01-05T11:36:39.492Z,100506.19
2023-01-05T11:39:18.357Z,100507.88
2023-01-05T11:41:46.112Z,100508.31
2023-01-05T11:44:21.847Z,100510.28
2023-01-05T11:46:50.664Z,100511.84
2023-01-05T11:49:20.043Z,100512.31
2023-01-05T11:51:47.731Z,100517.56
2023-01-05T11:54:33.645Z,100521.63
2023-01-05T11:57:16.656Z,100512.66
2023-01-05T11:59:47.553Z,100519.84
2023-01-05T12:02:39.909Z,100522.28
2023-01-05T12:05:28.723Z,100497.16
2023-01-05T12:08:02.183Z,100520.59
2023-01-05T12:10:51.764Z,100513.09
2023-01-05T12:13:50.187Z,100523.13
2023-01-05T12:16:34.482Z,100525.22
2023-01-05T12:19:25.343Z,100522.09
2023-01-05T12:22:13.433Z,100530.78
2023-01-05T12:25:01.674Z,100532.66
2023-01-05T12:27:41.201Z,100527.19
2023-01-05T12:34:01.792Z,100522.81
2023-01-05T12:36:33.189Z,100523.38
2023-01-05T12:39:15.228Z,100527.66
2023-01-05T12:42:04.408Z,100530.91
2023-01-05T12:45:02.632Z,100522.94
2023-01-05T12:47:51.550Z,100513.00
2023-01-05T12:50:29.631Z,100520.84
2023-01-05T12:53:04.702Z,100514.78
2023-01-05T12:55:36.808Z,100534.22
2023-01-05T12:58:11.157Z,100523.16
2023-01-05T13:00:45.856Z,100529.81
2023-01-05T13:03:23.079Z,100519.25
2023-01-05T13:06:01.979Z,100521.34
2023-01-05T13:08:36.501Z,100517.75
2023-01-05T13:11:11.491Z,100536.09
2023-01-05T13:13:42.341Z,100538.16
2023-01-05T13:16:16.185Z,100537.72
2023-01-05T13:18:48.683Z,100533.41
2023-01-05T13:21:17.752Z,100537.47
2023-01-05T13:23:49.898Z,100539.44
2023-01-05T13:26:19.333Z,100539.28
2023-01-05T13:28:48.940Z,100538.66
2023-01-05T13:31:44.031Z,100534.41
2023-01-05T13:34:31.673Z,100536.84
2023-01-05T13:37:33.866Z,100537.72
2023-01-05T13:40:15.514Z,100546.84
2023-01-05T13:43:15.962Z,100537.81
2023-01-05T13:46:07.072Z,100546.38
2023-01-05T13:49:04.141Z,100544.69
2023-01-05T13:51:52.333Z,100546.00
2023-01-05T13:54:43.242Z,100556.28
2023-01-05T13:57:17.161Z,100560.97
2023-01-05T13:59:56.233Z,100556.22
2023-01-05T14:02:32.577Z,100549.66
2023-01-05T14:05:00.705Z,100546.88
2023-01-05T14:07:29.217Z,100547.38
2023-01-05T14:09:59.672Z,100554.69
2023-01-05T14:12:43.377Z,100556.41
2023-01-05T14:15:37.579Z,100552.88
2023-01-05T14:18:05.834Z,100547.41
2023-01-05T14:20:37.867Z,100547.72
2023-01-05T14:23:44.078Z,100554.03
2023-01-05T14:26:13.477Z,100554.84
2023-01-05T14:28:44.455Z,100550.91
2023-01-05T14:31:38.342Z,100555.47
2023-01-05T14:34:13.214Z,100551.91
2023-01-05T14:36:42.581Z,100542.50
2023-01-05T14:39:25.590Z,100546.44
2023-01-05T14:42:05.163Z,100553.47
2023-01-05T14:44:37.367Z,100552.47
2023-01-05T14:47:06.641Z,100555.75
2023-01-05T14:49:38.047Z,100560.81
2023-01-05T14:52:11.197Z,100568.69
2023-01-05T14:55:21.860Z,100568.25
2023-01-05T14:58:00.780Z,100573.13
2023-01-05T15:00:41.101Z,100564.81
2023-01-05T15:03:27.989Z,100572.28
2023-01-05T15:06:01.548Z,100573.66
2023-01-05T15:09:09.185Z,100574.22
2023-01-05T15:12:13.910Z,100576.78
2023-01-05T15:15:15.086Z,100580.28
2023-01-05T15:18:13.722Z,100580.66
2023-01-05T15:21:06.348Z,100583.31
2023-01-05T15:24:19.506Z,100577.38
2023-01-05T15:27:03.805Z,100585.25
2023-01-05T15:29:59.699Z,100584.09
2023-01-05T15:32:31.309Z,100583.31
2023-01-05T15:35:06.033Z,100589.66
2023-01-05T15:37:36.431Z,100588.50
2023-01-05T15:40:07.719Z,100581.97
2023-01-05T15:42:39.740Z,100578.69
2023-01-05T15:45:17.207Z,100589.28
2023-01-05T15:47:47.947Z,100583.94
2023-01-05T15:50:19.845Z,100581.28
2023-01-05T15:52:54.694Z,100577.72
2023-01-05T15:55:23.035Z,100578.41
2023-01-05T15:57:55.642Z,100580.16
2023-01-05T16:00:26.598Z,100588.75
2023-01-05T16:02:55.796Z,100583.19
2023-01-05T16:05:25.438Z,100574.44
2023-01-05T16:07:57.565Z,100575.84
2023-01-05T16:10:30.046Z,100593.91
2023-01-05T16:13:06.637Z,100579.81
2023-01-05T16:15:36.867Z,100595.47
2023-01-05T16:18:08.440Z,100589.28
2023-01-05T16:20:41.783Z,100587.66
2023-01-05T16:23:15.949Z,100581.28
2023-01-05T16:25:50.968Z,100586.78
2023-01-05T16:28:20.739Z,100588.25
2023-01-05T16:30:49.700Z,100587.91
2023-01-05T16:33:34.521Z,100564.81
2023-01-05T16:36:12.062Z,100587.38
2023-01-05T16:38:40.100Z,100593.03
2023-01-05T16:41:14.029Z,100539.84
2023-01-05T16:43:44.762Z,100591.94
2023-01-05T16:46:31.004Z,100597.88
2023-01-05T16:49:04.936Z,100596.41
2023-01-05T16:51:42.710Z,100598.31
2023-01-05T16:54:21.986Z,100598.84
2023-01-05T16:56:57.862Z,100592.66
2023-01-05T16:59:42.881Z,100594.19
2023-01-05T17:02:31.879Z,100596.47
2023-01-05T17:05:00.952Z,100590.22
2023-01-05T17:07:28.682Z,100596.59
2023-01-05T17:09:56.434Z,100588.25
2023-01-05T17:12:24.192Z,100588.41
2023-01-05T17:14:52.374Z,100586.94
2023-01-05T17:19:54.124Z,100589.25
2023-01-05T17:22:23.472Z,100583.25
2023-01-05T17:24:52.883Z,100592.19
2023-01-05T17:27:20.560Z,100593.22
2023-01-05T17:29:48.230Z,100590.97
2023-01-05T17:32:15.934Z,100587.78
2023-01-05T17:34:43.677Z,100584.94
2023-01-05T17:37:16.768Z,100593.50
2023-01-05T17:39:45.828Z,100590.72
2023-01-05T17:45:00.265Z,100591.00
2023-01-05T17:47:27.855Z,100593.72
2023-01-05T17:49:55.582Z,100594.44
2023-01-05T17:52:25.890Z,100586.31
2023-01-05T17:54:54.915Z,100585.81
2023-01-05T17:57:22.613Z,100579.63
2023-01-05T17:59:50.298Z,100587.78
2023-01-05T18:02:18.027Z,100582.63
2023-01-05T18:04:45.767Z,100584.84
2023-01-05T18:07:13.508Z,100579.34
2023-01-05T18:09:41.214Z,100574.19
2023-01-05T18:12:10.311Z,100580.50
2023-01-05T18:17:10.805Z,100578.09
2023-01-05T18:19:38.449Z,100577.63
2023-01-05T18:22:06.096Z,100576.44
2023-01-05T18:24:33.764Z,100574.91
2023-01-05T18:27:01.417Z,100581.97
2023-01-05T18:29:30.397Z,100584.34
2023-01-05T18:31:58.019Z,100576.88
2023-01-05T18:34:25.712Z,100575.84
2023-01-05T18:37:01.534Z,100574.84
2023-01-05T18:39:34.154Z,100582.16
2023-01-05T18:42:01.792Z,100576.69
2023-01-05T18:44:30.829Z,100580.34
2023-01-05T18:46:58.587Z,100496.66
2023-01-05T18:49:27.371Z,100573.88
2023-01-05T18:51:55.045Z,100570.47
2023-01-05T18:54:23.347Z,100575.31
2023-01-05T18:56:51.076Z,100572.13
2023-01-05T18:59:18.816Z,100580.75
2023-01-05T19:01:48.179Z,100571.41
2023-01-05T19:04:17.290Z,100570.31
2023-01-05T19:06:45.156Z,100564.66
2023-01-05T19:09:15.188Z,100565.81
2023-01-05T19:11:45.604Z,100524.88
2023-01-05T19:14:14.642Z,100555.41
2023-01-05T19:16:42.352Z,100562.94
2023-01-05T19:19:15.065Z,100543.84
2023-01-05T19:21:45.053Z,100565.91
2023-01-05T19:24:16.741Z,100567.28
2023-01-05T19:26:45.326Z,100571.34
2023-01-05T19:29:13.804Z,100574.09
2023-01-05T19:31:42.306Z,100564.28
2023-01-05T19:34:14.780Z,100553.22
2023-01-05T19:36:42.659Z,100562.31
2023-01-05T19:39:13.741Z,100567.63
2023-01-05T19:41:45.675Z,100565.03
2023-01-05T19:44:15.465Z,100563.56
2023-01-05T19:46:44.042Z,100560.09
2023-01-05T19:49:17.445Z,100555.63
2023-01-05T19:51:45.531Z,100560.13
2023-01-05T19:54:14.704Z,100563.41
2023-01-05T19:56:43.913Z,100560.47
2023-01-05T19:59:15.926Z,100556.50
2023-01-05T20:01:43.893Z,100558.81
2023-01-05T20:04:12.000Z,100550.28
2023-01-05T20:06:44.050Z,100556.84
2023-01-05T20:09:14.606Z,100558.59
2023-01-05T20:11:44.512Z,100560.41
2023-01-05T20:14:14.673Z,100559.19
2023-01-05T20:16:47.642Z,100557.78
2023-01-05T20:19:16.712Z,100557.25
2023-01-05T20:21:45.916Z,100550.31
2023-01-05T20:24:17.279Z,100551.13
2023-01-05T20:26:46.267Z,100551.22
2023-01-05T20:29:14.660Z,100544.56
2023-01-05T20:31:45.066Z,100552.81
2023-01-05T20:34:15.513Z,100550.88
2023-01-05T20:36:44.117Z,100546.38
2023-01-05T20:39:15.976Z,100547.31
2023-01-05T20:41:47.548Z,100552.38
2023-01-05T20:44:16.378Z,100545.84
2023-01-05T20:46:46.353Z,100546.28
2023-01-05T20:49:14.961Z,100541.84
2023-01-05T20:51:43.768Z,100546.44
2023-01-05T20:54:13.491Z,100551.63
2023-01-05T20:56:43.762Z,100546.63
2023-01-05T20:59:14.197Z,100548.53
2023-01-05T21:01:42.616Z,100552.50
2023-01-05T21:04:10.325Z,100546.28
2023-01-05T21:06:38.930Z,100550.31
2023-01-05T21:09:08.276Z,100545.97
2023-01-05T21:11:38.315Z,100544.44
2023-01-05T21:14:07.112Z,100546.81
2023-01-05T21:16:38.095Z,100515.81
2023-01-05T21:19:06.816Z,100552.13
2023-01-05T21:21:34.565Z,100533.31
2023-01-05T21:24:03.657Z,100543.53
2023-01-05T21:26:31.367Z,100543.31
2023-01-05T21:29:00.523Z,100545.38
2023-01-05T21:31:28.718Z,100523.44
2023-01-05T21:33:56.428Z,100548.13
2023-01-05T21:36:26.112Z,100545.16
2023-01-05T21:39:00.918Z,100546.06
2023-01-05T21:41:49.709Z,100545.97
2023-01-05T21:44:20.420Z,100534.44
2023-01-05T21:46:49.191Z,100538.13
2023-01-05T21:49:17.752Z,100520.97
2023-01-05T21:52:03.335Z,100527.44
2023-01-05T21:54:49.369Z,100526.38
2023-01-05T21:57:17.738Z,100530.22
2023-01-05T21:59:46.866Z,100525.16
2023-01-05T22:02:15.760Z,100515.25
2023-01-05T22:04:44.929Z,100470.06
2023-01-05T22:07:12.979Z,100523.34
2023-01-05T22:09:40.621Z,100519.22
2023-01-05T22:12:09.523Z,100524.06
2023-01-05T22:14:37.671Z,100515.25
2023-01-05T22:17:08.460Z,100513.44
2023-01-05T22:19:36.564Z,100505.84
2023-01-05T22:22:04.865Z,100516.38
2023-01-05T22:24:32.597Z,100516.66
2023-01-05T22:27:00.246Z,100517.09
2023-01-05T22:29:28.362Z,100520.28
2023-01-05T22:31:57.905Z,100518.25
2023-01-05T22:34:27.515Z,100506.94
2023-01-05T22:36:55.182Z,100502.00
2023-01-05T22:39:22.953Z,100509.50
2023-01-05T22:41:50.808Z,100503.75
2023-01-05T22:44:18.879Z,100503.75
2023-01-05T22:46:46.679Z,100509.47
2023-01-05T22:49:16.366Z,100514.91
2023-01-05T22:51:46.355Z,100502.53
2023-01-05T22:54:14.053Z,100500.03
2023-01-05T22:56:41.761Z,100507.19
2023-01-05T22:59:09.501Z,100503.81
2023-01-05T23:01:38.973Z,100508.28
2023-01-05T23:04:07.952Z,100507.97
2023-01-05T23:06:36.037Z,100521.28
2023-01-05T23:09:07.735Z,100501.56
2023-01-05T23:11:37.817Z,100506.03
2023-01-05T23:14:07.464Z,100496.09
2023-01-05T23:16:35.992Z,100494.59
2023-01-05T23:19:05.542Z,100490.66
2023-01-05T23:21:33.602Z,100479.16
2023-01-05T23:24:01.296Z,100478.31
2023-01-05T23:26:30.949Z,100483.44
2023-01-05T23:28:59.205Z,100479.66
2023-01-05T23:31:27.743Z,100477.03
2023-01-05T23:33:55.455Z,100471.97
2023-01-05T23:36:24.458Z,100466.63
2023-01-05T23:38:52.166Z,100471.28
2023-01-05T23:41:20.612Z,100418.59
2023-01-05T23:43:49.628Z,100462.25
2023-01-05T23:46:20.101Z,100459.19
2023-01-05T23:48:48.547Z,100461.59
2023-01-05T23:51:17.034Z,100425.22
2023-01-05T23:53:46.763Z,100449.31
2023-01-05T23:56:17.471Z,100443.28
2023-01-05T23:58:45.551Z,100439.38
